createdAt,value
2022-10-05T00:01:38.055Z,1.80
2022-10-05T00:04:24.496Z,2.25
2022-10-05T00:07:19.044Z,1.63
2022-10-05T00:10:01.316Z,2.20
2022-10-05T00:12:32.644Z,1.98
2022-10-05T00:15:03.621Z,1.75
2022-10-05T00:17:36.135Z,1.70
2022-10-05T00:20:26.516Z,2.20
2022-10-05T00:23:05.766Z,1.90
2022-10-05T00:25:35.995Z,2.40
2022-10-05T00:30:47.518Z,1.75
2022-10-05T00:33:20.348Z,2.25
2022-10-05T00:35:51.011Z,1.63
2022-10-05T00:38:21.722Z,2.05
2022-10-05T00:41:23.673Z,1.67
2022-10-05T00:44:40.195Z,1.83
2022-10-05T00:47:32.763Z,1.70
2022-10-05T00:50:33.308Z,1.75
2022-10-05T00:53:12.459Z,1.83
2022-10-05T00:55:56.656Z,3.13
2022-10-05T00:58:29.656Z,1.38
2022-10-05T01:01:49.993Z,1.73
2022-10-05T01:04:30.755Z,1.80
2022-10-05T01:07:38.123Z,2.03
2022-10-05T01:10:43.749Z,2.10
2022-10-05T01:13:32.070Z,1.63
2022-10-05T01:16:14.723Z,1.55
2022-10-05T01:19:32.697Z,1.92
2022-10-05T01:22:13.518Z,2.22
2022-10-05T01:25:04.782Z,1.42
2022-10-05T01:28:18.852Z,1.65
2022-10-05T01:30:51.959Z,1.85
2022-10-05T01:33:35.806Z,1.83
2022-10-05T01:36:35.983Z,2.00
2022-10-05T01:39:13.044Z,1.73
2022-10-05T01:41:50.115Z,1.63
2022-10-05T01:44:28.087Z,1.45
2022-10-05T01:47:27.667Z,1.85
2022-10-05T01:50:09.208Z,1.83
2022-10-05T01:52:49.010Z,1.85
2022-10-05T01:55:22.508Z,1.30
2022-10-05T01:58:21.334Z,1.70
2022-10-05T02:01:01.567Z,1.73
2022-10-05T02:03:45.826Z,1.27
2022-10-05T02:06:22.581Z,1.48
2022-10-05T02:09:03.347Z,1.50
2022-10-05T02:11:35.314Z,1.70
2022-10-05T02:14:11.022Z,1.33
2022-10-05T02:16:45.300Z,1.73
2022-10-05T02:19:27.361Z,1.95
2022-10-05T02:22:40.258Z,1.60
2022-10-05T02:25:16.796Z,1.90
2022-10-05T02:28:03.856Z,1.67
2022-10-05T02:30:39.655Z,1.75
2022-10-05T02:33:36.194Z,2.38
2022-10-05T02:36:17.116Z,1.80
2022-10-05T02:39:11.792Z,2.70
2022-10-05T02:41:48.614Z,2.20
2022-10-05T02:44:28.983Z,1.48
2022-10-05T02:47:10.659Z,1.73
2022-10-05T02:49:49.113Z,2.08
2022-10-05T02:52:45.338Z,1.80
2022-10-05T02:55:24.352Z,2.13
2022-10-05T02:58:20.344Z,1.48
2022-10-05T03:00:57.518Z,1.80
2022-10-05T03:03:40.794Z,2.25
2022-10-05T03:06:33.209Z,1.67
2022-10-05T03:09:06.697Z,1.23
2022-10-05T03:12:26.101Z,1.75
2022-10-05T03:15:23.915Z,1.45
2022-10-05T03:18:31.261Z,1.80
2022-10-05T03:21:19.868Z,1.52
2022-10-05T03:24:11.707Z,2.33
2022-10-05T03:27:07.837Z,1.75
2022-10-05T03:29:44.514Z,2.10
2022-10-05T03:32:43.514Z,1.45
2022-10-05T03:35:22.777Z,1.25
2022-10-05T03:38:07.956Z,1.75
2022-10-05T03:40:46.467Z,2.40
2022-10-05T03:43:51.459Z,1.38
2022-10-05T03:46:30.595Z,1.70
2022-10-05T03:49:10.211Z,1.50
2022-10-05T03:52:03.516Z,1.55
2022-10-05T03:55:06.470Z,1.35
2022-10-05T03:57:40.936Z,1.40
2022-10-05T04:00:23.464Z,1.60
2022-10-05T04:03:11.498Z,1.83
2022-10-05T04:05:51.189Z,2.03
2022-10-05T04:08:48.039Z,1.90
2022-10-05T04:11:31.091Z,1.65
2022-10-05T04:14:17.331Z,1.60
2022-10-05T04:16:51.946Z,1.55
2022-10-05T04:19:39.492Z,1.65
2022-10-05T04:22:36.311Z,2.05
2022-10-05T04:25:18.358Z,1.20
2022-10-05T04:27:56.604Z,1.58
2022-10-05T04:30:27.381Z,1.80
2022-10-05T04:33:00.790Z,1.92
2022-10-05T04:36:14.408Z,1.85
2022-10-05T04:38:59.601Z,2.00
2022-10-05T04:41:46.247Z,1.90
2022-10-05T04:44:41.151Z,1.80
2022-10-05T04:47:29.769Z,2.22
2022-10-05T04:50:24.034Z,1.67
2022-10-05T04:53:25.890Z,1.77
2022-10-05T04:56:21.377Z,2.50
2022-10-05T04:59:08.986Z,1.67
2022-10-05T05:01:59.991Z,1.85
2022-10-05T05:04:52.171Z,2.78
2022-10-05T05:07:44.460Z,1.55
2022-10-05T05:10:42.049Z,1.60
2022-10-05T05:13:27.142Z,1.90
2022-10-05T05:16:22.595Z,2.17
2022-10-05T05:19:29.823Z,1.58
2022-10-05T05:22:05.674Z,1.70
2022-10-05T05:25:13.819Z,1.60
2022-10-05T05:28:02.615Z,2.00
2022-10-05T05:31:07.140Z,1.80
2022-10-05T05:33:56.758Z,1.70
2022-10-05T05:37:00.086Z,2.20
2022-10-05T05:40:01.794Z,1.92
2022-10-05T05:42:36.495Z,2.00
2022-10-05T05:45:39.712Z,2.25
2022-10-05T05:48:45.024Z,1.88
2022-10-05T05:51:40.794Z,1.75
2022-10-05T05:54:43.219Z,1.50
2022-10-05T05:57:45.537Z,1.83
2022-10-05T06:00:44.203Z,2.00
2022-10-05T06:03:19.387Z,1.92
2022-10-05T06:06:13.164Z,1.70
2022-10-05T06:08:59.539Z,1.73
2022-10-05T06:11:46.971Z,1.80
2022-10-05T06:14:28.060Z,1.65
2022-10-05T06:17:20.076Z,1.60
2022-10-05T06:19:55.925Z,2.30
2022-10-05T06:22:30.866Z,1.67
2022-10-05T06:25:09.894Z,2.15
2022-10-05T06:28:11.810Z,1.95
2022-10-05T06:31:30.744Z,1.88
2022-10-05T06:34:18.300Z,1.40
2022-10-05T06:36:56.727Z,1.20
2022-10-05T06:39:52.351Z,1.45
2022-10-05T06:42:46.094Z,1.73
2022-10-05T06:45:49.911Z,1.38
2022-10-05T06:49:12.147Z,1.50
2022-10-05T06:52:06.133Z,1.55
2022-10-05T06:55:17.457Z,1.58
2022-10-05T06:58:27.560Z,1.83
2022-10-05T07:01:12.372Z,2.30
2022-10-05T07:04:09.419Z,3.28
2022-10-05T07:07:13.494Z,1.52
2022-10-05T07:10:16.339Z,1.95
2022-10-05T07:13:07.990Z,1.88
2022-10-05T07:18:36.123Z,2.00
2022-10-05T07:21:36.890Z,1.95
2022-10-05T07:24:07.353Z,1.52
2022-10-05T07:26:52.300Z,1.90
2022-10-05T07:29:36.903Z,1.83
2022-10-05T07:32:36.943Z,1.80
2022-10-05T07:35:10.730Z,3.30
2022-10-05T07:37:56.058Z,1.90
2022-10-05T07:40:41.495Z,2.03
2022-10-05T07:44:00.538Z,1.63
2022-10-05T07:46:53.215Z,1.58
2022-10-05T07:49:43.467Z,1.55
2022-10-05T07:52:21.192Z,1.55
2022-10-05T07:55:14.103Z,1.40
2022-10-05T07:57:51.853Z,1.80
2022-10-05T08:00:25.024Z,1.70
2022-10-05T08:03:08.583Z,1.92
2022-10-05T08:05:43.863Z,2.97
2022-10-05T08:08:31.982Z,3.08
2022-10-05T08:11:19.080Z,2.60
2022-10-05T08:13:49.389Z,2.58
2022-10-05T08:16:20.738Z,2.22
2022-10-05T08:19:02.110Z,2.35
2022-10-05T08:22:04.499Z,2.58
2022-10-05T08:25:01.434Z,2.85
2022-10-05T08:27:48.167Z,2.50
2022-10-05T08:30:19.217Z,2.85
2022-10-05T08:32:58.914Z,2.53
2022-10-05T08:35:36.553Z,2.40
2022-10-05T08:38:23.618Z,2.30
2022-10-05T08:41:34.274Z,2.53
2022-10-05T08:44:34.559Z,2.10
2022-10-05T08:47:31.603Z,2.13
2022-10-05T08:50:13.259Z,1.70
2022-10-05T08:53:14.645Z,2.17
2022-10-05T08:55:54.058Z,2.75
2022-10-05T08:59:17.792Z,2.40
2022-10-05T09:01:56.548Z,2.10
2022-10-05T09:05:19.848Z,1.85
2022-10-05T09:08:32.166Z,1.58
2022-10-05T09:11:14.140Z,1.95
2022-10-05T09:14:05.420Z,1.85
2022-10-05T09:17:12.377Z,1.63
2022-10-05T09:19:54.081Z,1.63
2022-10-05T09:22:39.537Z,1.73
2022-10-05T09:25:40.025Z,2.38
2022-10-05T09:28:26.134Z,1.80
2022-10-05T09:31:17.835Z,1.40
2022-10-05T09:34:04.816Z,1.33
2022-10-05T09:36:50.797Z,1.08
2022-10-05T09:39:36.110Z,1.27
2022-10-05T09:42:34.138Z,1.55
2022-10-05T09:45:29.987Z,1.25
2022-10-05T09:48:15.184Z,1.15
2022-10-05T09:51:08.425Z,1.45
2022-10-05T09:54:11.942Z,1.75
2022-10-05T09:57:21.599Z,1.90
2022-10-05T10:00:10.662Z,2.03
2022-10-05T10:03:15.443Z,2.08
2022-10-05T10:06:33.984Z,2.00
2022-10-05T10:09:18.752Z,2.40
2022-10-05T10:12:01.898Z,2.92
2022-10-05T10:14:53.736Z,2.75
2022-10-05T10:17:51.763Z,2.70
2022-10-05T10:20:36.890Z,2.85
2022-10-05T10:23:24.510Z,3.67
2022-10-05T10:26:21.943Z,3.40
2022-10-05T10:29:01.447Z,3.10
2022-10-05T10:32:10.864Z,2.50
2022-10-05T10:34:41.478Z,2.67
2022-10-05T10:37:42.270Z,2.13
2022-10-05T10:40:59.715Z,2.20
2022-10-05T10:43:44.879Z,2.28
2022-10-05T10:46:29.447Z,3.03
2022-10-05T10:49:17.938Z,2.78
2022-10-05T10:52:26.252Z,2.55
2022-10-05T10:55:07.589Z,2.30
2022-10-05T10:58:06.815Z,2.97
2022-10-05T11:00:56.494Z,2.65
2022-10-05T11:03:53.730Z,3.05
2022-10-05T11:06:51.467Z,2.70
2022-10-05T11:09:37.066Z,2.92
2022-10-05T11:12:34.549Z,2.75
2022-10-05T11:17:59.259Z,2.92
2022-10-05T11:20:35.357Z,3.17
2022-10-05T11:23:38.937Z,4.03
2022-10-05T11:26:41.443Z,3.60
2022-10-05T11:29:30.240Z,4.05
2022-10-05T11:32:35.318Z,3.53
2022-10-05T11:35:26.429Z,3.75
2022-10-05T11:38:08.210Z,3.45
2022-10-05T11:40:54.008Z,3.30
2022-10-05T11:44:06.118Z,2.88
2022-10-05T11:46:55.339Z,3.00
2022-10-05T11:49:46.511Z,2.47
2022-10-05T11:52:41.874Z,2.22
2022-10-05T11:55:34.746Z,2.80
2022-10-05T11:58:13.324Z,2.50
2022-10-05T12:00:55.675Z,2.63
2022-10-05T12:03:44.351Z,2.08
2022-10-05T12:06:41.805Z,3.03
2022-10-05T12:09:32.742Z,2.45
2022-10-05T12:12:28.026Z,2.80
2022-10-05T12:15:04.786Z,2.28
2022-10-05T12:17:40.146Z,2.58
2022-10-05T12:20:22.220Z,2.20
2022-10-05T12:23:01.081Z,2.70
2022-10-05T12:25:36.667Z,2.80
2022-10-05T12:28:22.330Z,2.20
2022-10-05T12:31:11.107Z,2.13
2022-10-05T12:33:47.991Z,2.30
2022-10-05T12:37:03.038Z,2.05
2022-10-05T12:39:52.935Z,2.70
2022-10-05T12:42:32.990Z,2.50
2022-10-05T12:45:16.440Z,2.08
2022-10-05T12:47:53.891Z,2.40
2022-10-05T12:50:37.840Z,2.20
2022-10-05T12:53:20.064Z,2.10
2022-10-05T12:56:12.668Z,2.25
2022-10-05T12:58:49.366Z,2.55
2022-10-05T13:01:24.868Z,2.00
2022-10-05T13:04:12.450Z,2.00
2022-10-05T13:07:03.885Z,1.75
2022-10-05T13:09:55.616Z,2.00
2022-10-05T13:12:37.757Z,1.67
2022-10-05T13:15:32.535Z,1.48
2022-10-05T13:18:25.790Z,1.75
2022-10-05T13:21:03.883Z,1.85
2022-10-05T13:24:00.347Z,2.38
2022-10-05T13:26:45.720Z,1.83
2022-10-05T13:29:34.285Z,1.90
2022-10-05T13:32:19.880Z,1.90
2022-10-05T13:35:29.431Z,1.88
2022-10-05T13:38:08.430Z,2.13
2022-10-05T13:41:03.557Z,2.40
2022-10-05T13:43:54.226Z,1.90
2022-10-05T13:46:47.995Z,1.80
2022-10-05T13:49:40.377Z,1.90
2022-10-05T13:52:10.347Z,1.85
2022-10-05T13:55:14.258Z,2.03
2022-10-05T13:58:16.646Z,2.17
2022-10-05T14:00:56.307Z,2.17
2022-10-05T14:03:36.117Z,2.30
2022-10-05T14:06:27.547Z,2.13
2022-10-05T14:09:01.147Z,2.65
2022-10-05T14:11:36.825Z,1.80
2022-10-05T14:14:17.702Z,2.15
2022-10-05T14:16:55.037Z,1.85
2022-10-05T14:19:58.843Z,2.10
2022-10-05T14:22:30.567Z,2.00
2022-10-05T14:25:09.935Z,1.88
2022-10-05T14:27:55.072Z,2.22
2022-10-05T14:30:28.241Z,2.42
2022-10-05T14:33:07.357Z,2.20
2022-10-05T14:35:51.680Z,2.50
2022-10-05T14:38:27.511Z,2.00
2022-10-05T14:41:18.183Z,2.17
2022-10-05T14:43:54.998Z,2.15
2022-10-05T14:46:29.573Z,2.20
2022-10-05T14:49:26.852Z,2.22
2022-10-05T14:51:58.119Z,2.20
2022-10-05T14:54:43.213Z,2.20
2022-10-05T14:57:26.488Z,2.15
2022-10-05T15:00:17.899Z,2.40
2022-10-05T15:03:33.420Z,2.40
2022-10-05T15:06:04.887Z,2.58
2022-10-05T15:08:38.156Z,2.20
2022-10-05T15:11:12.907Z,2.00
2022-10-05T15:13:49.759Z,2.13
2022-10-05T15:16:22.223Z,2.30
2022-10-05T15:19:22.891Z,2.25
2022-10-05T15:22:09.561Z,2.17
2022-10-05T15:24:51.515Z,2.10
2022-10-05T15:27:34.878Z,2.00
2022-10-05T15:30:15.317Z,2.03
2022-10-05T15:33:07.304Z,2.20
2022-10-05T15:36:01.694Z,1.95
2022-10-05T15:38:54.190Z,1.90
2022-10-05T15:41:46.684Z,1.95
2022-10-05T15:44:56.770Z,2.15
2022-10-05T15:47:48.572Z,2.20
2022-10-05T15:50:44.806Z,2.17
2022-10-05T15:53:47.365Z,2.17
2022-10-05T15:56:42.671Z,2.10
2022-10-05T15:59:27.508Z,2.13
2022-10-05T16:02:04.916Z,2.30
2022-10-05T16:04:42.926Z,2.22
2022-10-05T16:07:43.851Z,2.30
2022-10-05T16:10:22.743Z,2.40
2022-10-05T16:13:12.969Z,2.25
2022-10-05T16:18:33.324Z,3.08
2022-10-05T16:21:19.307Z,2.65
2022-10-05T16:24:01.362Z,2.38
2022-10-05T16:26:52.597Z,2.40
2022-10-05T16:29:36.043Z,2.88
2022-10-05T16:32:20.649Z,3.10
2022-10-05T16:35:11.944Z,3.00
2022-10-05T16:38:03.698Z,2.90
2022-10-05T16:40:47.283Z,2.97
2022-10-05T16:43:38.987Z,3.00
2022-10-05T16:46:16.871Z,3.05
2022-10-05T16:48:58.548Z,3.50
2022-10-05T16:51:41.088Z,3.30
2022-10-05T16:54:21.263Z,3.40
2022-10-05T16:57:36.274Z,3.78
2022-10-05T17:00:16.357Z,3.58
2022-10-05T17:03:05.058Z,3.50
2022-10-05T17:05:57.038Z,3.67
2022-10-05T17:08:40.071Z,3.72
2022-10-05T17:11:23.867Z,3.25
2022-10-05T17:14:09.467Z,4.20
2022-10-05T17:16:58.397Z,3.97
2022-10-05T17:20:09.366Z,4.65
2022-10-05T17:22:53.499Z,3.97
2022-10-05T17:25:37.316Z,4.53
2022-10-05T17:28:26.196Z,4.93
2022-10-05T17:31:18.533Z,3.92
2022-10-05T17:34:27.442Z,4.43
2022-10-05T17:37:19.145Z,4.10
2022-10-05T17:39:55.626Z,4.22
2022-10-05T17:42:47.787Z,4.18
2022-10-05T17:45:20.786Z,3.97
2022-10-05T17:48:10.574Z,3.72
2022-10-05T17:51:01.234Z,4.47
2022-10-05T17:54:05.343Z,3.85
2022-10-05T17:56:58.133Z,3.90
2022-10-05T17:59:57.473Z,4.60
2022-10-05T18:02:38.503Z,3.60
2022-10-05T18:05:30.502Z,4.00
2022-10-05T18:08:37.919Z,3.75
2022-10-05T18:11:18.575Z,3.58
2022-10-05T18:13:51.336Z,3.72
2022-10-05T18:17:00.474Z,3.80
2022-10-05T18:19:34.473Z,3.80
2022-10-05T18:22:17.084Z,3.50
2022-10-05T18:25:14.516Z,3.92
2022-10-05T18:30:27.968Z,3.50
2022-10-05T18:33:19.422Z,3.47
2022-10-05T18:36:07.959Z,3.50
2022-10-05T18:39:01.708Z,3.53
2022-10-05T18:41:34.941Z,3.90
2022-10-05T18:44:21.355Z,3.47
2022-10-05T18:47:24.162Z,3.20
2022-10-05T18:50:03.624Z,3.47
2022-10-05T18:53:24.460Z,3.30
2022-10-05T18:56:22.120Z,3.90
2022-10-05T18:59:37.930Z,3.50
2022-10-05T19:02:14.906Z,3.22
2022-10-05T19:04:49.203Z,3.13
2022-10-05T19:07:39.439Z,3.53
2022-10-05T19:10:29.871Z,3.17
2022-10-05T19:13:38.835Z,3.20
2022-10-05T19:16:38.670Z,2.92
2022-10-05T19:19:30.897Z,3.28
2022-10-05T19:22:18.659Z,3.10
2022-10-05T19:24:51.880Z,3.20
2022-10-05T19:27:51.835Z,3.08
2022-10-05T19:30:56.729Z,3.10
2022-10-05T19:33:48.465Z,3.00
2022-10-05T19:36:38.912Z,3.25
2022-10-05T19:39:29.724Z,3.63
2022-10-05T19:42:08.465Z,3.08
2022-10-05T19:44:49.307Z,3.45
2022-10-05T19:47:52.807Z,2.95
2022-10-05T19:53:15.077Z,3.13
2022-10-05T19:55:48.347Z,3.25
2022-10-05T19:58:41.288Z,3.42
2022-10-05T20:01:13.960Z,3.28
2022-10-05T20:03:50.143Z,2.83
2022-10-05T20:08:59.143Z,2.95
2022-10-05T20:11:30.624Z,3.03
2022-10-05T20:14:04.021Z,3.20
2022-10-05T20:16:53.998Z,2.83
2022-10-05T20:19:56.478Z,2.88
2022-10-05T20:22:49.694Z,3.22
2022-10-05T20:25:20.051Z,2.80
2022-10-05T20:27:52.952Z,2.88
2022-10-05T20:30:35.286Z,2.92
2022-10-05T20:33:12.715Z,2.95
2022-10-05T20:35:43.239Z,2.53
2022-10-05T20:38:13.890Z,2.85
2022-10-05T20:40:44.091Z,2.40
2022-10-05T20:43:15.551Z,3.55
2022-10-05T20:45:45.557Z,2.60
2022-10-05T20:48:17.745Z,3.22
2022-10-05T20:50:48.588Z,3.13
2022-10-05T20:53:18.915Z,2.83
2022-10-05T20:55:49.398Z,2.97
2022-10-05T20:58:19.590Z,2.80
2022-10-05T21:01:11.570Z,2.63
2022-10-05T21:03:43.839Z,2.63
2022-10-05T21:06:14.458Z,3.05
2022-10-05T21:08:45.239Z,2.90
2022-10-05T21:11:16.103Z,2.90
2022-10-05T21:13:46.950Z,3.28
2022-10-05T21:16:21.385Z,2.83
2022-10-05T21:18:51.497Z,2.55
2022-10-05T21:21:22.088Z,2.83
2022-10-05T21:23:52.388Z,3.00
2022-10-05T21:26:22.977Z,2.95
2022-10-05T21:31:22.378Z,2.92
2022-10-05T21:33:52.933Z,3.13
2022-10-05T21:38:56.462Z,3.35
2022-10-05T21:41:26.540Z,2.67
2022-10-05T21:43:57.695Z,3.28
2022-10-05T21:46:28.047Z,3.67
2022-10-05T21:48:58.550Z,3.45
2022-10-05T21:54:20.284Z,4.03
2022-10-05T21:56:56.239Z,2.90
2022-10-05T21:59:30.017Z,2.90
2022-10-05T22:02:00.456Z,3.33
2022-10-05T22:07:00.465Z,3.10
2022-10-05T22:11:59.984Z,3.08
2022-10-05T22:14:30.506Z,3.28
2022-10-05T22:19:30.545Z,3.70
2022-10-05T22:24:29.775Z,3.28
2022-10-05T22:27:00.305Z,4.78
2022-10-05T22:32:01.503Z,3.30
2022-10-05T22:34:32.515Z,3.17
2022-10-05T22:37:05.956Z,3.33
2022-10-05T22:39:35.946Z,3.60
2022-10-05T22:42:06.992Z,3.75
2022-10-05T22:44:37.387Z,4.50
2022-10-05T22:47:07.986Z,4.32
2022-10-05T22:49:38.077Z,4.43
2022-10-05T22:52:11.347Z,4.90
2022-10-05T22:54:41.378Z,5.25
2022-10-05T22:57:11.983Z,5.32
2022-10-05T23:02:11.842Z,4.10
2022-10-05T23:04:42.540Z,4.82
2022-10-05T23:09:42.567Z,4.50
2022-10-05T23:12:14.767Z,4.07
2022-10-05T23:14:44.985Z,3.88
2022-10-05T23:17:15.570Z,3.78
2022-10-05T23:22:15.135Z,3.45
2022-10-05T23:24:45.799Z,3.17
2022-10-05T23:27:16.117Z,3.47
2022-10-05T23:29:46.716Z,3.90
2022-10-05T23:32:16.672Z,4.70
2022-10-05T23:34:47.245Z,3.83
2022-10-05T23:39:52.010Z,3.38
2022-10-05T23:42:22.361Z,3.42
2022-10-05T23:44:52.838Z,4.13
2022-10-05T23:47:23.000Z,3.22
2022-10-05T23:49:53.568Z,3.85
2022-10-05T23:52:23.746Z,4.43
2022-10-05T23:54:53.719Z,3.72
2022-10-05T23:57:24.502Z,3.70
2022-10-05T23:59:54.653Z,5.63
